^^
B2 Weather Station Historical Data
Daily Summary for May 1, 2019 Units:  English    Metric   Both
Daily Weekly Monthly Yearly Custom
  High: Low: Average:
Temperature: 66.3 °F 48.5 °F 57.3 °F
Dew Point: 61 °F 46.9 °F 54.7 °F
Humidity: 95% 82% 91%
Wind Speed: 17.3mph 0mph 7.7mph
Wind Gust: 11.2mph - -
Wind- - South
Pressure: 30.07 in 29.77 in -
Precipitation: 0.82 in    
Historical Graphs
 
 
Tabular Data for May 1, 2019
Time Temperature Dew Point Pressure Wind Wind Speed Wind Gust Humidity Rainfall Rate (Hourly) solar
00:00 49.4 °F 47.7 °F 29.97 in NE 8.1 mph 6.1 mph 94% 0.07 in 0.00 W/m2
00:05 49.3 °F 47.6 °F 29.97 in NE 4.6 mph 3.4 mph 94% 0.09 in 0.00 W/m2
00:10 49.3 °F 47.6 °F 29.98 in NNE 4 mph 3.2 mph 94% 0.13 in 0.00 W/m2
00:15 49.2 °F 47.5 °F 29.96 in NNE 8.1 mph 6.2 mph 94% 0.17 in 0.00 W/m2
00:20 49.1 °F 47.4 °F 29.95 in NNE 10.4 mph 7.1 mph 94% 0.2 in 0.00 W/m2
00:25 49 °F 47.3 °F 29.96 in NE 6.9 mph 5 mph 94% 0.22 in 0.00 W/m2
00:30 48.9 °F 47.2 °F 29.95 in NE 11.5 mph 7.6 mph 94% 0.23 in 0.00 W/m2
00:35 48.8 °F 47.2 °F 29.95 in NE 11.5 mph 9 mph 94% 0.25 in 0.00 W/m2
00:40 48.8 °F 47.2 °F 29.96 in ENE 11.5 mph 8.3 mph 94% 0.3 in 0.00 W/m2
00:45 48.7 °F 47.1 °F 29.96 in NE 6.9 mph 5.7 mph 94% 0.32 in 0.00 W/m2
00:50 48.7 °F 47.1 °F 29.96 in NE 9.2 mph 5.6 mph 94% 0.31 in 0.00 W/m2
00:55 48.6 °F 47 °F 29.96 in ENE 10.4 mph 6.8 mph 94% 0.32 in 0.00 W/m2
01:00 48.6 °F 47 °F 29.95 in ENE 10.4 mph 7.6 mph 94% 0.31 in 0.00 W/m2
01:05 48.5 °F 46.9 °F 29.95 in East 10.4 mph 7.5 mph 94% 0.3 in 0.00 W/m2
01:10 48.5 °F 46.9 °F 29.94 in ENE 11.5 mph 7.5 mph 94% 0.27 in 0.00 W/m2
01:15 48.5 °F 46.9 °F 29.93 in NE 11.5 mph 9.3 mph 94% 0.24 in 0.00 W/m2
01:20 48.5 °F 46.9 °F 29.93 in East 8.1 mph 7.3 mph 94% 0.22 in 0.00 W/m2
01:25 48.6 °F 47 °F 29.94 in East 12.7 mph 9.6 mph 94% 0.26 in 0.00 W/m2
01:30 48.7 °F 47.1 °F 29.92 in East 12.7 mph 10.1 mph 94% 0.31 in 0.00 W/m2
01:35 48.7 °F 47.1 °F 29.91 in East 13.8 mph 10.1 mph 94% 0.3 in 0.00 W/m2
01:40 48.7 °F 47.1 °F 29.92 in ESE 8.1 mph 5.8 mph 94% 0.25 in 0.00 W/m2
01:45 48.8 °F 47.2 °F 29.92 in East 8.1 mph 5.3 mph 94% 0.23 in 0.00 W/m2
01:50 48.8 °F 47.2 °F 29.91 in East 10.4 mph 8.1 mph 94% 0.23 in 0.00 W/m2
01:55 48.8 °F 47.2 °F 29.92 in East 6.9 mph 5.5 mph 94% 0.21 in 0.00 W/m2
02:00 48.7 °F 47.1 °F 29.92 in East 6.9 mph 4.3 mph 94% 0.2 in 0.00 W/m2
02:05 48.7 °F 47.1 °F 29.92 in East 6.9 mph 5.4 mph 94% 0.19 in 0.00 W/m2
02:10 48.8 °F 47.2 °F 29.91 in East 6.9 mph 5.6 mph 94% 0.18 in 0.00 W/m2
02:15 48.8 °F 47.2 °F 29.90 in East 6.9 mph 4.9 mph 94% 0.18 in 0.00 W/m2
02:20 48.9 °F 47.2 °F 29.89 in East 8.1 mph 6.2 mph 94% 0.18 in 0.00 W/m2
02:25 49.1 °F 47.4 °F 29.89 in East 8.1 mph 6.1 mph 94% 0.12 in 0.00 W/m2
02:30 49.4 °F 47.7 °F 29.89 in ESE 8 mph 3.8 mph 94% 0.06 in 0.00 W/m2
02:35 49.6 °F 47.9 °F 29.88 in East 6.9 mph 5.3 mph 94% 0.05 in 0.00 W/m2
02:40 49.7 °F 48 °F 29.89 in ESE 8.1 mph 4.5 mph 94% 0.05 in 0.00 W/m2
02:45 49.9 °F 48.2 °F 29.88 in ESE 3.5 mph 3.1 mph 94% 0.06 in 0.00 W/m2
02:50 49.9 °F 48.2 °F 29.87 in ESE 6.9 mph 5.8 mph 94% 0.07 in 0.00 W/m2
02:55 50 °F 48.3 °F 29.88 in SE 6.9 mph 3.7 mph 94% 0.08 in 0.00 W/m2
03:00 50.2 °F 48.5 °F 29.87 in ESE 4.6 mph 3.2 mph 94% 0.1 in 0.00 W/m2
03:05 50.3 °F 48.6 °F 29.86 in East 6 mph 3.3 mph 94% 0.11 in 0.00 W/m2
03:10 50.5 °F 48.8 °F 29.86 in East 5.8 mph 3.7 mph 94% 0.12 in 0.00 W/m2
03:15 50.5 °F 48.8 °F 29.85 in East 6.9 mph 5.4 mph 94% 0.14 in 0.00 W/m2
03:20 50.7 °F 49 °F 29.83 in ENE 8.1 mph 6.2 mph 94% 0.14 in 0.00 W/m2
03:25 50.9 °F 49.2 °F 29.84 in East 5.8 mph 4.4 mph 94% 0.15 in 0.00 W/m2
03:30 51 °F 49.3 °F 29.83 in East 8.1 mph 6.1 mph 94% 0.16 in 0.00 W/m2
03:35 51.1 °F 49.4 °F 29.84 in East 5.8 mph 3.1 mph 94% 0.18 in 0.00 W/m2
03:40 51.1 °F 49.4 °F 29.84 in East 6 mph 3 mph 94% 0.2 in 0.00 W/m2
03:45 51.2 °F 49.5 °F 29.81 in East 9.2 mph 7.1 mph 94% 0.23 in 0.00 W/m2
03:50 51.4 °F 49.7 °F 29.80 in East 7 mph 7 mph 94% 0.22 in 0.00 W/m2
03:55 51.6 °F 49.9 °F 29.81 in East 8.1 mph 6.9 mph 94% 0.21 in 0.00 W/m2
04:00 51.7 °F 50 °F 29.81 in East 9.2 mph 7.5 mph 94% 0.2 in 0.00 W/m2
04:05 51.8 °F 50.1 °F 29.81 in ESE 10.4 mph 8 mph 94% 0.19 in 0.00 W/m2
04:10 51.8 °F 50.1 °F 29.80 in East 10.4 mph 8.5 mph 94% 0.18 in 0.00 W/m2
04:15 51.8 °F 50.1 °F 29.80 in ESE 11.5 mph 8.5 mph 94% 0.15 in 0.00 W/m2
04:20 51.8 °F 50.1 °F 29.81 in East 10.4 mph 7.9 mph 94% 0.14 in 0.00 W/m2
04:25 51.8 °F 50.1 °F 29.80 in East 11.5 mph 8.5 mph 94% 0.13 in 0.00 W/m2
04:30 51.8 °F 50.1 °F 29.80 in East 9.2 mph 7.5 mph 94% 0.11 in 0.00 W/m2
04:35 51.7 °F 50.3 °F 29.80 in ESE 9.2 mph 6.1 mph 95% 0.09 in 0.00 W/m2
04:40 51.8 °F 50.1 °F 29.80 in East 9.2 mph 7.4 mph 94% 0.07 in 0.00 W/m2
04:45 51.8 °F 50.1 °F 29.78 in ENE 13.8 mph 10.2 mph 94% 0.03 in 0.00 W/m2
04:50 51.8 °F 50.4 °F 29.78 in East 11.5 mph 8.8 mph 95% 0.02 in 0.00 W/m2
04:55 51.9 °F 50.2 °F 29.78 in ESE 10.4 mph 8 mph 94% 0.02 in 0.00 W/m2
05:00 51.9 °F 50.2 °F 29.78 in East 10.4 mph 7.2 mph 94% 0.01 in 0.00 W/m2
05:05 52 °F 50.3 °F 29.78 in ESE 11.5 mph 8.7 mph 94% 0.01 in 0.00 W/m2
05:10 52 °F 50.3 °F 29.78 in East 8.1 mph 6.8 mph 94% 0.01 in 0.00 W/m2
05:15 52 °F 50.3 °F 29.77 in ENE 8.1 mph 5.3 mph 94% 0.01 in 0.00 W/m2
05:20 51.9 °F 50.2 °F 29.77 in East 8.1 mph 6.7 mph 94% 0.01 in 0.00 W/m2
05:25 51.9 °F 50.5 °F 29.77 in East 10.4 mph 7.7 mph 95% 0.01 in 0.00 W/m2
05:30 51.8 °F 50.4 °F 29.77 in East 9.2 mph 7 mph 95% 0.01 in 0.00 W/m2
05:35 51.7 °F 50 °F 29.77 in East 8.1 mph 6.1 mph 94% 0.01 in 0.00 W/m2
05:40 51.6 °F 49.9 °F 29.77 in ESE 9.2 mph 5.6 mph 94% 0 in 0.00 W/m2
05:45 51.7 °F 50 °F 29.78 in ESE 6.9 mph 4.6 mph 94% 0 in 0.00 W/m2
05:50 51.7 °F 50.3 °F 29.77 in ESE 6.9 mph 4.7 mph 95% 0 in 0.00 W/m2
05:55 51.8 °F 50.4 °F 29.77 in ESE 8.1 mph 5.3 mph 95% 0 in 0.00 W/m2
06:00 51.8 °F 50.4 °F 29.78 in SE 6 mph 4.2 mph 95% 0 in 0.00 W/m2
06:05 51.9 °F 50.5 °F 29.78 in SE 5.8 mph 4 mph 95% 0 in 0.00 W/m2
06:10 52.2 °F 50.5 °F 29.78 in SE 8.1 mph 5.6 mph 94% 0 in 0.00 W/m2
06:15 52.2 °F 50.5 °F 29.78 in ESE 11.5 mph 8.7 mph 94% 0 in 0.00 W/m2
06:20 52.1 °F 50.4 °F 29.79 in SW 4.6 mph 2.6 mph 94% 0 in 0.00 W/m2
06:25 52.1 °F 50.4 °F 29.79 in SW 3.5 mph 0.6 mph 94% 0 in 5.00 W/m2
06:30 52.3 °F 50.6 °F 29.80 in South 3.5 mph 2.5 mph 94% 0 in 5.00 W/m2
06:35 52.6 °F 51.2 °F 29.81 in SW 5.8 mph 2.4 mph 95% 0 in 9.00 W/m2
06:40 53 °F 51.3 °F 29.81 in SSW 2.3 mph 0.6 mph 94% 0 in 11.00 W/m2
06:45 53.2 °F 51.8 °F 29.81 in SSW 2.3 mph 0.7 mph 95% 0 in 18.00 W/m2
06:50 53.7 °F 52.3 °F 29.82 in SSW 6.9 mph 3.9 mph 95% 0 in 7.00 W/m2
06:55 54.4 °F 53 °F 29.83 in SW 11.5 mph 6.5 mph 95% 0 in 12.00 W/m2
07:00 54.8 °F 53.1 °F 29.84 in SW 12.7 mph 7.8 mph 94% 0 in 32.00 W/m2
07:05 55 °F 53.6 °F 29.84 in WSW 11.5 mph 7.8 mph 95% 0 in 30.00 W/m2
07:10 55.2 °F 53.8 °F 29.84 in SW 10.4 mph 7.1 mph 95% 0 in 70.00 W/m2
07:15 55.3 °F 53.6 °F 29.84 in WSW 9 mph 5.5 mph 94% 0 in 107.00 W/m2
07:20 55.5 °F 53.8 °F 29.85 in NW 9.2 mph 5.5 mph 94% 0 in 102.00 W/m2
07:25 55.6 °F 54.2 °F 29.85 in WSW 11.5 mph 5.8 mph 95% 0 in 95.00 W/m2
07:30 55.7 °F 54.3 °F 29.86 in West 9.2 mph 5.3 mph 95% 0 in 98.00 W/m2
07:35 55.7 °F 54.3 °F 29.86 in WSW 6.9 mph 4.2 mph 95% 0 in 142.00 W/m2
07:40 55.9 °F 54.5 °F 29.86 in WSW 10.4 mph 5.8 mph 95% 0 in 142.00 W/m2
07:45 56 °F 54.3 °F 29.86 in West 6.9 mph 4.1 mph 94% 0 in 105.00 W/m2
07:50 56 °F 54.3 °F 29.86 in WNW 6 mph 3.2 mph 94% 0 in 79.00 W/m2
07:55 55.9 °F 54.5 °F 29.86 in WSW 9.2 mph 5.3 mph 95% 0 in 76.00 W/m2
08:00 55.9 °F 54.5 °F 29.86 in WSW 6 mph 4.1 mph 95% 0 in 83.00 W/m2
08:05 56 °F 54.6 °F 29.86 in West 3.5 mph 2.4 mph 95% 0 in 93.00 W/m2
08:10 56.1 °F 54.4 °F 29.87 in SW 5.8 mph 3.2 mph 94% 0 in 109.00 W/m2
08:15 56.2 °F 54.5 °F 29.87 in SW 5.8 mph 3.6 mph 94% 0 in 128.00 W/m2
08:20 56.3 °F 54.9 °F 29.87 in WSW 10.4 mph 6.2 mph 95% 0 in 151.00 W/m2
08:25 56.4 °F 55 °F 29.87 in SW 6.9 mph 4.2 mph 95% 0 in 146.00 W/m2
08:30 56.4 °F 55 °F 29.87 in SW 5.8 mph 3.8 mph 95% 0 in 158.00 W/m2
08:35 56.3 °F 54.9 °F 29.88 in SSW 4.6 mph 3.7 mph 95% 0 in 232.00 W/m2
08:40 56.5 °F 55.1 °F 29.88 in WSW 8 mph 3.4 mph 95% 0 in 332.00 W/m2
08:45 56.7 °F 55.3 °F 29.88 in SW 12.7 mph 8.2 mph 95% 0 in 420.00 W/m2
08:50 57.3 °F 55.6 °F 29.89 in South 12.7 mph 6.8 mph 94% 0 in 192.00 W/m2
08:55 57.2 °F 55.8 °F 29.89 in SW 11.5 mph 7.7 mph 95% 0 in 178.00 W/m2
09:00 57.4 °F 56 °F 29.89 in SW 10.4 mph 6.4 mph 95% 0 in 116.00 W/m2
09:05 57.4 °F 56 °F 29.90 in SW 8.1 mph 4.9 mph 95% 0 in 102.00 W/m2
09:10 57.5 °F 56.1 °F 29.90 in SSW 10.4 mph 4.6 mph 95% 0 in 109.00 W/m2
09:15 57.6 °F 56.2 °F 29.90 in SSW 11.5 mph 7 mph 95% 0 in 107.00 W/m2
09:20 57.8 °F 56.4 °F 29.90 in SW 10.4 mph 5.8 mph 95% 0 in 104.00 W/m2
09:25 57.9 °F 56.5 °F 29.91 in SW 10.4 mph 7.4 mph 95% 0 in 70.00 W/m2
09:30 58.1 °F 56.4 °F 29.91 in SW 6.9 mph 2.9 mph 94% 0 in 70.00 W/m2
09:35 58.2 °F 56.8 °F 29.91 in SSW 9.2 mph 4.6 mph 95% 0 in 97.00 W/m2
09:40 58.5 °F 56.8 °F 29.91 in SW 11.5 mph 6.2 mph 94% 0 in 146.00 W/m2
09:45 58.8 °F 57.1 °F 29.91 in SSW 9.2 mph 4.9 mph 94% 0 in 123.00 W/m2
09:50 59 °F 57.6 °F 29.91 in West 9.2 mph 4.4 mph 95% 0 in 123.00 W/m2
09:55 59.2 °F 57.5 °F 29.91 in SSW 6.9 mph 4.4 mph 94% 0 in 153.00 W/m2
09:59 59.4 °F 57.7 °F 29.92 in SSW 9.2 mph 4.8 mph 94% 0 in 153.00 W/m2
10:05 59.5 °F 58.1 °F 29.92 in SSW 10 mph 4.5 mph 95% 0 in 128.00 W/m2
10:10 59.6 °F 57.9 °F 29.92 in SSW 10.4 mph 6.2 mph 94% 0 in 118.00 W/m2
10:15 59.7 °F 58 °F 29.93 in SSW 9.2 mph 4.4 mph 94% 0 in 149.00 W/m2
10:20 59.9 °F 58.2 °F 29.92 in SSW 9.2 mph 4.1 mph 94% 0 in 179.00 W/m2
10:25 60.2 °F 58.5 °F 29.92 in SW 9.2 mph 4.4 mph 94% 0 in 272.00 W/m2
10:30 60.5 °F 58.8 °F 29.92 in SW 11.5 mph 6.7 mph 94% 0 in 211.00 W/m2
10:35 60.6 °F 58.9 °F 29.92 in WSW 12.7 mph 7.4 mph 94% 0 in 192.00 W/m2
10:40 60.7 °F 59 °F 29.92 in South 15 mph 8.5 mph 94% 0 in 206.00 W/m2
10:45 61 °F 59.3 °F 29.93 in WSW 11.5 mph 6.9 mph 94% 0 in 209.00 W/m2
10:50 61.1 °F 59.1 °F 29.92 in SSE 10.4 mph 6.2 mph 93% 0 in 274.00 W/m2
10:55 61.2 °F 59.2 °F 29.92 in SSW 11.5 mph 6.7 mph 93% 0 in 264.00 W/m2
11:00 61.3 °F 59.3 °F 29.93 in WSW 11.5 mph 7.7 mph 93% 0 in 267.00 W/m2
11:04 61.5 °F 59.5 °F 29.93 in SSW 12 mph 9.3 mph 93% 0 in 223.00 W/m2
11:10 61.3 °F 59 °F 29.93 in SW 12.7 mph 9.3 mph 92% 0 in 183.00 W/m2
11:15 61.3 °F 59 °F 29.94 in WSW 11.5 mph 8.4 mph 92% 0 in 174.00 W/m2
11:20 61.2 °F 58.9 °F 29.94 in WSW 15 mph 9.7 mph 92% 0 in 134.00 W/m2
11:25 61.2 °F 58.9 °F 29.94 in WSW 9.2 mph 5.7 mph 92% 0 in 132.00 W/m2
11:30 61.2 °F 58.9 °F 29.94 in SSW 11.5 mph 6.2 mph 92% 0 in 179.00 W/m2
11:35 61.2 °F 58.9 °F 29.94 in SSW 12.7 mph 7.8 mph 92% 0 in 213.00 W/m2
11:40 61.3 °F 59 °F 29.94 in SW 9.2 mph 5 mph 92% 0 in 262.00 W/m2
11:45 61.6 °F 59.3 °F 29.95 in WSW 6.9 mph 5.6 mph 92% 0 in 183.00 W/m2
11:50 61.8 °F 59.5 °F 29.95 in WSW 8 mph 2.7 mph 92% 0 in 436.00 W/m2
11:55 62.4 °F 60 °F 29.95 in WSW 11.5 mph 6.1 mph 92% 0 in 663.00 W/m2
12:00 62.9 °F 59.9 °F 29.95 in West 12 mph 7.4 mph 90% 0 in 399.00 W/m2
12:05 63.2 °F 60.2 °F 29.95 in SSW 11.5 mph 6.9 mph 90% 0 in 334.00 W/m2
12:10 63.3 °F 60 °F 29.95 in WSW 15 mph 9.2 mph 89% 0 in 343.00 W/m2
12:15 63.4 °F 60.1 °F 29.96 in WSW 13.8 mph 7.7 mph 89% 0 in 285.00 W/m2
12:20 63.5 °F 60.2 °F 29.95 in SW 12.7 mph 8.3 mph 89% 0 in 232.00 W/m2
12:25 63.6 °F 60.3 °F 29.96 in WSW 11.5 mph 7.7 mph 89% 0 in 243.00 W/m2
12:30 63.8 °F 60.5 °F 29.96 in WSW 9.2 mph 4.9 mph 89% 0 in 199.00 W/m2
12:35 64.1 °F 60.8 °F 29.96 in WSW 9.2 mph 5.1 mph 89% 0 in 339.00 W/m2
12:40 64.4 °F 60.8 °F 29.97 in WSW 17.3 mph 11.2 mph 88% 0 in 578.00 W/m2
12:45 64.7 °F 60.7 °F 29.97 in WSW 15 mph 8.8 mph 87% 0 in 494.00 W/m2
12:50 64.4 °F 60.1 °F 29.97 in West 17.3 mph 7.1 mph 86% 0 in 320.00 W/m2
12:55 64.3 °F 60 °F 29.98 in WSW 16.1 mph 8.4 mph 86% 0 in 392.00 W/m2
13:00 65 °F 61 °F 29.98 in West 11.5 mph 7.8 mph 87% 0 in 831.00 W/m2
13:05 65 °F 60.4 °F 29.98 in WSW 9.2 mph 4.8 mph 85% 0 in 501.00 W/m2
13:10 64.7 °F 60.1 °F 29.98 in WSW 8 mph 4.6 mph 85% 0 in 396.00 W/m2
13:15 64.5 °F 59.9 °F 29.98 in West 11.5 mph 7.1 mph 85% 0 in 262.00 W/m2
13:20 64.2 °F 59.3 °F 29.98 in SSW 16.1 mph 8.4 mph 84% 0 in 302.00 W/m2
13:25 64.2 °F 59.6 °F 29.98 in WSW 11.5 mph 7.1 mph 85% 0 in 413.00 W/m2
13:30 64.2 °F 59.3 °F 29.98 in West 15 mph 8.3 mph 84% 0 in 441.00 W/m2
13:35 64.5 °F 59.9 °F 29.98 in WNW 11.5 mph 7.2 mph 85% 0 in 666.00 W/m2
13:40 64.9 °F 60.3 °F 29.98 in West 8.1 mph 5.5 mph 85% 0 in 559.00 W/m2
13:45 65 °F 59.7 °F 29.98 in WNW 15 mph 9.5 mph 83% 0 in 747.00 W/m2
13:50 65.1 °F 60.1 °F 29.98 in WSW 12.7 mph 6.4 mph 84% 0 in 1009.00 W/m2
13:55 65.8 °F 60.8 °F 29.98 in WSW 11.5 mph 8.2 mph 84% 0 in 1009.00 W/m2
14:00 65.9 °F 60.6 °F 29.99 in WSW 11 mph 5.7 mph 83% 0 in 965.00 W/m2
14:05 66 °F 60.7 °F 29.99 in WNW 10.4 mph 5.7 mph 83% 0 in 752.00 W/m2
14:10 66.3 °F 61 °F 29.99 in WNW 11.5 mph 6.5 mph 83% 0 in 601.00 W/m2
14:15 65.9 °F 60.2 °F 29.99 in WSW 10.4 mph 6.2 mph 82% 0 in 464.00 W/m2
14:20 65.4 °F 60.1 °F 30.00 in WNW 10.4 mph 5.6 mph 83% 0 in 425.00 W/m2
14:25 65.1 °F 59.8 °F 30.00 in WSW 10.4 mph 4.4 mph 83% 0 in 346.00 W/m2
14:30 64.9 °F 59.6 °F 30.00 in West 6 mph 4.8 mph 83% 0 in 410.00 W/m2
14:35 65.4 °F 60.8 °F 30.00 in NW 10.4 mph 6.2 mph 85% 0 in 1069.00 W/m2
14:40 65.6 °F 60.3 °F 30.00 in WSW 7 mph 4 mph 83% 0 in 343.00 W/m2
14:45 65.3 °F 60 °F 30.00 in WSW 6.9 mph 5 mph 83% 0 in 364.00 W/m2
14:50 65 °F 59.7 °F 30.00 in West 6.9 mph 4.6 mph 83% 0 in 366.00 W/m2
14:55 65.3 °F 60.3 °F 30.00 in WNW 10.4 mph 6.4 mph 84% 0 in 577.00 W/m2
15:00 65.6 °F 60.6 °F 30.00 in NW 6.9 mph 3.7 mph 84% 0 in 457.00 W/m2
15:05 65.6 °F 60.6 °F 30.00 in West 5.8 mph 3.4 mph 84% 0 in 283.00 W/m2
15:10 65.5 °F 60.2 °F 30.00 in West 10.4 mph 5.2 mph 83% 0 in 301.00 W/m2
15:15 65.3 °F 60 °F 30.00 in WSW 6 mph 2.2 mph 83% 0 in 378.00 W/m2
15:19 65.4 °F 60.4 °F 30.00 in West 8.1 mph 4.7 mph 84% 0 in 559.00 W/m2
15:24 65.7 °F 60.4 °F 30.00 in WNW 10.4 mph 6.8 mph 83% 0 in 547.00 W/m2
15:29 65.7 °F 60.1 °F 30.00 in West 8.1 mph 3.9 mph 82% 0 in 374.00 W/m2
15:34 65.8 °F 60.2 °F 30.00 in WNW 10.4 mph 5.1 mph 82% 0 in 417.00 W/m2
15:39 65.7 °F 60.1 °F 30.00 in WNW 10.4 mph 5.8 mph 82% 0 in 364.00 W/m2
15:44 65.6 °F 60.3 °F 30.00 in West 8.1 mph 5.1 mph 83% 0 in 320.00 W/m2
15:49 65.7 °F 60.4 °F 30.00 in NNW 6.9 mph 6.4 mph 83% 0 in 752.00 W/m2
15:54 65.5 °F 60.2 °F 30.00 in NW 11.5 mph 5 mph 83% 0 in 487.00 W/m2
15:59 65.5 °F 60.2 °F 30.00 in NW 10.4 mph 5.2 mph 83% 0 in 364.00 W/m2
16:04 65.1 °F 59.8 °F 30.00 in NW 9.2 mph 4.8 mph 83% 0 in 318.00 W/m2
16:09 64.8 °F 59.9 °F 30.00 in NNW 9.2 mph 3.3 mph 84% 0 in 849.00 W/m2
16:14 65.4 °F 60.8 °F 30.00 in NNW 8.1 mph 5.8 mph 85% 0 in 717.00 W/m2
16:19 65.8 °F 60.8 °F 30.00 in WNW 10 mph 5.6 mph 84% 0 in 645.00 W/m2
16:24 65.4 °F 60.1 °F 30.01 in WNW 8.1 mph 5.2 mph 83% 0 in 236.00 W/m2
16:29 65 °F 59.7 °F 30.01 in NNW 6.9 mph 5.2 mph 83% 0 in 315.00 W/m2
16:34 64.2 °F 59.3 °F 30.01 in NW 8.1 mph 4.8 mph 84% 0 in 178.00 W/m2
16:39 63.9 °F 59.3 °F 30.01 in NNW 11.5 mph 7.6 mph 85% 0 in 450.00 W/m2
16:44 63.1 °F 58.5 °F 30.01 in NNW 11 mph 9 mph 85% 0 in 185.00 W/m2
16:49 62.5 °F 58.6 °F 30.01 in NNW 9.2 mph 8 mph 87% 0 in 450.00 W/m2
16:54 62.7 °F 58.8 °F 30.01 in NW 6.9 mph 4.3 mph 87% 0 in 497.00 W/m2
16:59 62.5 °F 58.3 °F 30.01 in NNW 11 mph 7.9 mph 86% 0 in 246.00 W/m2
17:04 62 °F 58.1 °F 30.01 in North 9.2 mph 5.7 mph 87% 0 in 244.00 W/m2
17:09 61.8 °F 58.2 °F 30.01 in NW 6.9 mph 5.7 mph 88% 0 in 260.00 W/m2
17:14 61.7 °F 57.8 °F 30.01 in NNW 6.9 mph 3.6 mph 87% 0 in 258.00 W/m2
17:19 61.5 °F 57.9 °F 30.01 in NNW 10.4 mph 4 mph 88% 0 in 315.00 W/m2
17:24 61.6 °F 58 °F 30.01 in WNW 5.8 mph 4.1 mph 88% 0 in 218.00 W/m2
17:29 61.5 °F 57.6 °F 30.01 in NNW 6.9 mph 6 mph 87% 0 in 332.00 W/m2
17:34 61.8 °F 57.9 °F 30.00 in NNW 6.9 mph 5.2 mph 87% 0 in 410.00 W/m2
17:39 61.9 °F 58.3 °F 30.01 in NNW 8.1 mph 5.8 mph 88% 0 in 455.00 W/m2
17:44 61.9 °F 58.3 °F 30.01 in North 5 mph 4.2 mph 88% 0 in 229.00 W/m2
17:49 61.8 °F 58.2 °F 30.01 in North 5.8 mph 5 mph 88% 0 in 410.00 W/m2
17:54 62 °F 58.4 °F 30.02 in North 5 mph 1.3 mph 88% 0 in 411.00 W/m2
17:59 62.2 °F 58 °F 30.02 in North 5.8 mph 2.5 mph 86% 0 in 366.00 W/m2
18:04 62.3 °F 58.4 °F 30.01 in North 5.8 mph 3.6 mph 87% 0 in 237.00 W/m2
18:09 62.2 °F 58.3 °F 30.01 in NNW 5.8 mph 3.8 mph 87% 0 in 346.00 W/m2
18:14 61.8 °F 57.6 °F 30.01 in North 5.8 mph 2.9 mph 86% 0 in 172.00 W/m2
18:19 61.4 °F 57.5 °F 30.01 in North 6.9 mph 5 mph 87% 0 in 276.00 W/m2
18:24 61.3 °F 57.4 °F 30.02 in North 5.8 mph 4.8 mph 87% 0 in 158.00 W/m2
18:29 60.9 °F 57 °F 30.02 in North 6.9 mph 4.3 mph 87% 0 in 192.00 W/m2
18:34 60.8 °F 57.2 °F 30.02 in NNW 5.8 mph 4.1 mph 88% 0 in 79.00 W/m2
18:39 60.4 °F 56.8 °F 30.02 in NNW 3.5 mph 2.1 mph 88% 0 in 74.00 W/m2
18:44 60.3 °F 57 °F 30.02 in NNW 4.6 mph 3.7 mph 89% 0 in 69.00 W/m2
18:49 60.2 °F 56.9 °F 30.02 in NNW 4 mph 3.4 mph 89% 0 in 60.00 W/m2
18:54 60 °F 56.7 °F 30.02 in NNE 3.5 mph 2.1 mph 89% 0 in 60.00 W/m2
18:59 59.9 °F 56.6 °F 30.02 in North 3.5 mph 2.3 mph 89% 0 in 56.00 W/m2
19:04 59.8 °F 56.6 °F 30.02 in North 3.5 mph 0.9 mph 89% 0 in 53.00 W/m2
19:09 59.7 °F 56.5 °F 30.02 in Calm   0.2 mph 89% 0 in 44.00 W/m2
19:14 59.7 °F 56.5 °F 30.02 in North 2.3 mph 0.2 mph 89% 0 in 33.00 W/m2
19:19 59.6 °F 56.4 °F 30.02 in North 1.2 mph 0.6 mph 89% 0 in 23.00 W/m2
19:24 59.4 °F 56.2 °F 30.02 in NNE 2.3 mph 0.3 mph 89% 0 in 23.00 W/m2
19:29 59.3 °F 56.4 °F 30.02 in NE 3.5 mph   90% 0 in 19.00 W/m2
19:34 59.1 °F 56.2 °F 30.02 in NE 3.5 mph 1.8 mph 90% 0 in 12.00 W/m2
19:39 59 °F 56.4 °F 30.03 in NE 2.3 mph 1.3 mph 91% 0 in 7.00 W/m2
19:44 58.8 °F 56.2 °F 30.03 in Calm     91% 0 in 0.00 W/m2
19:49 58.7 °F 56.1 °F 30.03 in Calm     91% 0 in 0.00 W/m2
19:54 58.6 °F 56 °F 30.03 in Calm     91% 0 in 0.00 W/m2
19:59 58.4 °F 55.8 °F 30.03 in Calm     91% 0 in 0.00 W/m2
20:04 58.1 °F 55.5 °F 30.03 in Calm     91% 0 in 0.00 W/m2
20:09 57.8 °F 55.2 °F 30.04 in Calm     91% 0 in 0.00 W/m2
20:14 57.8 °F 55.5 °F 30.04 in Calm     92% 0 in 0.00 W/m2
20:19 57.8 °F 55.5 °F 30.04 in NE 1.2 mph 0.7 mph 92% 0 in 0.00 W/m2
20:24 58.2 °F 56.2 °F 30.04 in NNE 2.3 mph 1.2 mph 93% 0 in 0.00 W/m2
20:29 58.3 °F 56 °F 30.04 in NNE 1.2 mph 1.1 mph 92% 0 in 0.00 W/m2
20:34 58.1 °F 55.8 °F 30.04 in NNE 1.2 mph   92% 0 in 0.00 W/m2
20:39 58 °F 56 °F 30.05 in Calm     93% 0 in 0.00 W/m2
20:44 58 °F 56 °F 30.05 in NNE 1 mph 0.1 mph 93% 0 in 0.00 W/m2
20:49 58 °F 56 °F 30.05 in Calm     93% 0 in 0.00 W/m2
20:54 58.1 °F 56.1 °F 30.05 in NNE 2.3 mph 1.4 mph 93% 0 in 0.00 W/m2
20:59 58.1 °F 56.1 °F 30.05 in NNE 2.3 mph 0.8 mph 93% 0 in 0.00 W/m2
21:04 58.2 °F 56.2 °F 30.06 in NNE 1 mph   93% 0 in 0.00 W/m2
21:09 58.1 °F 56.1 °F 30.06 in NNE 2.3 mph 0.7 mph 93% 0 in 0.00 W/m2
21:14 58.2 °F 56.2 °F 30.06 in NNE 1.2 mph   93% 0 in 0.00 W/m2
21:19 58.2 °F 56.2 °F 30.06 in Calm     93% 0 in 0.00 W/m2
21:24 58.3 °F 56 °F 30.06 in North 3.5 mph 1.8 mph 92% 0 in 0.00 W/m2
21:29 58.3 °F 56 °F 30.07 in North 2 mph 0.7 mph 92% 0 in 0.00 W/m2
21:34 58.4 °F 56.1 °F 30.06 in North 2.3 mph 0.3 mph 92% 0 in 0.00 W/m2
21:39 58.3 °F 56 °F 30.07 in North 2.3 mph 0.8 mph 92% 0 in 0.00 W/m2
21:44 58.3 °F 56 °F 30.07 in NNE 3.5 mph 2.3 mph 92% 0 in 0.00 W/m2
21:49 57.4 °F 54.5 °F 30.07 in NE 3.5 mph 3.6 mph 90% 0 in 0.00 W/m2
21:54 56.5 °F 53.9 °F 30.07 in NE 4.6 mph 2.7 mph 91% 0 in 0.00 W/m2
21:59 56 °F 53.4 °F 30.07 in NNE 3.5 mph 2.7 mph 91% 0 in 0.00 W/m2
22:04 55.7 °F 53.4 °F 30.07 in NNE 4.6 mph 3.4 mph 92% 0 in 0.00 W/m2
22:09 55.4 °F 53.1 °F 30.07 in NNE 5.8 mph 3.6 mph 92% 0 in 0.00 W/m2
22:14 55.3 °F 53 °F 30.07 in NNE 4.6 mph 2.7 mph 92% 0 in 0.00 W/m2
22:19 55 °F 52.7 °F 30.07 in NNE 3.5 mph 2.8 mph 92% 0 in 0.00 W/m2
22:24 54.6 °F 52.3 °F 30.07 in NNE 3.5 mph 2.9 mph 92% 0 in 0.00 W/m2
22:29 54.2 °F 52.2 °F 30.06 in NNE 6.9 mph 3.7 mph 93% 0 in 0.00 W/m2
22:34 53.8 °F 51.8 °F 30.06 in NE 4 mph 3.2 mph 93% 0 in 0.00 W/m2
22:39 53.5 °F 51.5 °F 30.06 in NNE 5 mph 4 mph 93% 0 in 0.00 W/m2
22:44 53.1 °F 51.1 °F 30.06 in NNE 5.8 mph 3.3 mph 93% 0 in 0.00 W/m2
22:49 52.9 °F 50.9 °F 30.07 in NE 4.6 mph 2.5 mph 93% 0 in 0.00 W/m2
22:54 52.7 °F 50.7 °F 30.07 in NE 3.5 mph 2.5 mph 93% 0 in 0.00 W/m2
22:59 52.6 °F 50.6 °F 30.07 in NNE 3.5 mph 2.5 mph 93% 0 in 0.00 W/m2
23:04 52.5 °F 50.5 °F 30.07 in NE 3.5 mph 1.5 mph 93% 0 in 0.00 W/m2
23:09 52.4 °F 50.4 °F 30.07 in NE 3.5 mph 1.3 mph 93% 0 in 0.00 W/m2
23:14 52.2 °F 50.2 °F 30.07 in NE 3.5 mph 2 mph 93% 0 in 0.00 W/m2
23:19 52.2 °F 50.5 °F 30.07 in NE 3.5 mph 1.3 mph 94% 0 in 0.00 W/m2
23:24 52.2 °F 50.5 °F 30.06 in NE 4 mph 3.1 mph 94% 0 in 0.00 W/m2
23:29 52.2 °F 50.5 °F 30.05 in NE 5.8 mph 5.2 mph 94% 0 in 0.00 W/m2
23:34 52.1 °F 50.1 °F 30.05 in NE 3.5 mph 2.5 mph 93% 0 in 0.00 W/m2
23:39 51.9 °F 49.9 °F 30.06 in NE 3.5 mph 2.5 mph 93% 0 in 0.00 W/m2
23:44 51.7 °F 50 °F 30.06 in NE 5.8 mph 3.4 mph 94% 0 in 0.00 W/m2
23:49 51.6 °F 49.9 °F 30.06 in NE 4.6 mph 2.8 mph 94% 0 in 0.00 W/m2
23:54 51.5 °F 49.8 °F 30.06 in NNE 3.5 mph 2.6 mph 94% 0 in 0.00 W/m2
23:59 51.3 °F 49.6 °F 30.06 in NE 3.5 mph 1.8 mph 94% 0 in 0.00 W/m2
Bourbonnais, Illinois, USA
Compliments of Weather Underground - 4 mb